createdAt,value
2022-08-17T00:01:26.208Z,100.00
2022-08-17T00:03:40.809Z,100.00
2022-08-17T00:05:49.578Z,100.00
2022-08-17T00:07:51.485Z,100.00
2022-08-17T00:09:53.631Z,100.00
2022-08-17T00:12:34.832Z,100.00
2022-08-17T00:14:19.031Z,100.00
2022-08-17T00:16:55.361Z,100.00
2022-08-17T00:19:07.478Z,100.00
2022-08-17T00:21:11.713Z,100.00
2022-08-17T00:23:16.626Z,100.00
2022-08-17T00:25:18.998Z,100.00
2022-08-17T00:27:20.733Z,100.00
2022-08-17T00:29:22.629Z,100.00
2022-08-17T00:31:25.158Z,100.00
2022-08-17T00:33:30.823Z,100.00
2022-08-17T00:35:33.308Z,100.00
2022-08-17T00:37:35.093Z,100.00
2022-08-17T00:39:36.870Z,100.00
2022-08-17T00:41:42.533Z,100.00
2022-08-17T00:43:50.320Z,100.00
2022-08-17T00:45:52.723Z,100.00
2022-08-17T00:47:54.711Z,100.00
2022-08-17T00:49:56.432Z,100.00
2022-08-17T00:52:11.779Z,100.00
2022-08-17T00:54:33.636Z,100.00
2022-08-17T00:56:49.265Z,100.00
2022-08-17T00:58:54.544Z,100.00
2022-08-17T01:00:56.600Z,100.00
2022-08-17T01:03:03.175Z,100.00
2022-08-17T01:05:08.056Z,100.00
2022-08-17T01:07:10.202Z,100.00
2022-08-17T01:09:13.454Z,100.00
2022-08-17T01:11:15.206Z,100.00
2022-08-17T01:13:17.706Z,100.00
2022-08-17T01:15:19.582Z,100.00
2022-08-17T01:17:21.441Z,100.00
2022-08-17T01:19:36.735Z,100.00
2022-08-17T01:21:43.840Z,100.00
2022-08-17T01:23:45.662Z,100.00
2022-08-17T01:25:51.329Z,100.00
2022-08-17T01:27:53.118Z,100.00
2022-08-17T01:30:00.407Z,100.00
2022-08-17T01:32:05.134Z,100.00
2022-08-17T01:34:10.501Z,100.00
2022-08-17T01:36:12.319Z,100.00
2022-08-17T01:38:14.477Z,100.00
2022-08-17T01:40:26.285Z,100.00
2022-08-17T01:42:43.075Z,100.00
2022-08-17T01:44:45.298Z,100.00
2022-08-17T01:46:47.390Z,100.00
2022-08-17T01:48:49.357Z,100.00
2022-08-17T01:50:52.325Z,100.00
2022-08-17T01:53:00.804Z,100.00
2022-08-17T01:55:03.068Z,100.00
2022-08-17T01:57:07.679Z,100.00
2022-08-17T01:59:10.357Z,100.00
2022-08-17T02:01:13.150Z,100.00
2022-08-17T02:03:15.100Z,100.00
2022-08-17T02:05:17.013Z,100.00
2022-08-17T02:07:18.872Z,100.00
2022-08-17T02:09:30.385Z,100.00
2022-08-17T02:11:34.583Z,100.00
2022-08-17T02:13:36.364Z,100.00
2022-08-17T02:15:38.975Z,100.00
2022-08-17T02:17:40.999Z,100.00
2022-08-17T02:19:43.459Z,100.00
2022-08-17T02:21:48.232Z,100.00
2022-08-17T02:23:50.446Z,100.00
2022-08-17T02:25:52.705Z,100.00
2022-08-17T02:27:54.591Z,100.00
2022-08-17T02:29:56.469Z,100.00
2022-08-17T02:31:58.265Z,100.00
2022-08-17T02:34:04.175Z,100.00
2022-08-17T02:36:08.182Z,100.00
2022-08-17T02:38:09.944Z,100.00
2022-08-17T02:40:12.139Z,100.00
2022-08-17T02:42:15.464Z,100.00
2022-08-17T02:44:39.608Z,100.00
2022-08-17T02:46:39.487Z,100.00
2022-08-17T02:48:41.270Z,100.00
2022-08-17T02:50:43.008Z,100.00
2022-08-17T02:52:53.257Z,100.00
2022-08-17T02:55:07.623Z,100.00
2022-08-17T02:57:12.210Z,100.00
2022-08-17T02:59:14.116Z,100.00
2022-08-17T03:01:16.258Z,100.00
2022-08-17T03:03:18.172Z,100.00
2022-08-17T03:05:22.571Z,100.00
2022-08-17T03:07:24.287Z,100.00
2022-08-17T03:09:26.013Z,100.00
2022-08-17T03:11:28.144Z,100.00
2022-08-17T03:13:30.090Z,100.00
2022-08-17T03:15:33.688Z,100.00
2022-08-17T03:17:35.623Z,100.00
2022-08-17T03:19:37.402Z,100.00
2022-08-17T03:21:44.611Z,100.00
2022-08-17T03:23:46.494Z,100.00
2022-08-17T03:25:56.517Z,100.00
2022-08-17T03:27:58.614Z,100.00
2022-08-17T03:30:00.940Z,100.00
2022-08-17T03:32:11.752Z,100.00
2022-08-17T03:34:15.582Z,100.00
2022-08-17T03:36:17.511Z,100.00
2022-08-17T03:38:19.277Z,100.00
2022-08-17T03:40:55.287Z,100.00
2022-08-17T03:42:45.271Z,100.00
2022-08-17T03:44:51.930Z,100.00
2022-08-17T03:46:58.730Z,100.00
2022-08-17T03:49:00.763Z,100.00
2022-08-17T03:51:02.509Z,100.00
2022-08-17T03:53:08.140Z,100.00
2022-08-17T03:55:10.008Z,100.00
2022-08-17T03:57:12.610Z,100.00
2022-08-17T03:59:22.245Z,100.00
2022-08-17T04:01:25.324Z,100.00
2022-08-17T04:03:27.267Z,100.00
2022-08-17T04:05:29.016Z,100.00
2022-08-17T04:07:31.766Z,100.00
2022-08-17T04:09:33.907Z,100.00
2022-08-17T04:11:36.793Z,100.00
2022-08-17T04:13:38.657Z,100.00
2022-08-17T04:15:40.959Z,100.00
2022-08-17T04:17:42.735Z,100.00
2022-08-17T04:19:44.537Z,100.00
2022-08-17T04:21:46.309Z,100.00
2022-08-17T04:23:48.301Z,100.00
2022-08-17T04:25:50.983Z,100.00
2022-08-17T04:27:53.205Z,100.00
2022-08-17T04:29:56.114Z,100.00
2022-08-17T04:31:58.260Z,100.00
2022-08-17T04:34:00.094Z,100.00
2022-08-17T04:36:03.906Z,100.00
2022-08-17T04:38:07.390Z,100.00
2022-08-17T04:40:09.843Z,100.00
2022-08-17T04:42:11.657Z,100.00
2022-08-17T04:44:13.510Z,100.00
2022-08-17T04:46:36.162Z,100.00
2022-08-17T04:48:44.633Z,100.00
2022-08-17T04:50:48.892Z,100.00
2022-08-17T04:52:50.618Z,100.00
2022-08-17T04:54:52.329Z,100.00
2022-08-17T04:56:54.285Z,100.00
2022-08-17T04:58:59.638Z,100.00
2022-08-17T05:01:01.586Z,100.00
2022-08-17T05:03:04.656Z,100.00
2022-08-17T05:05:06.635Z,100.00
2022-08-17T05:07:08.548Z,100.00
2022-08-17T05:09:10.499Z,100.00
2022-08-17T05:11:12.339Z,100.00
2022-08-17T05:13:20.902Z,100.00
2022-08-17T05:15:22.716Z,100.00
2022-08-17T05:17:24.584Z,100.00
2022-08-17T05:19:26.393Z,100.00
2022-08-17T05:21:28.878Z,100.00
2022-08-17T05:23:37.843Z,100.00
2022-08-17T05:25:51.161Z,100.00
2022-08-17T05:27:54.822Z,96.99
2022-08-17T05:29:56.732Z,95.15
2022-08-17T05:31:58.478Z,94.20
2022-08-17T05:34:00.398Z,93.63
2022-08-17T05:36:04.500Z,93.58
2022-08-17T05:38:06.315Z,93.22
2022-08-17T05:40:08.956Z,94.17
2022-08-17T05:42:10.849Z,92.58
2022-08-17T05:44:12.581Z,96.06
2022-08-17T05:46:26.984Z,94.64
2022-08-17T05:48:39.023Z,95.92
2022-08-17T05:50:55.783Z,95.49
2022-08-17T05:53:07.671Z,95.14
2022-08-17T05:55:23.871Z,91.35
2022-08-17T05:57:53.740Z,90.67
2022-08-17T06:00:10.029Z,88.94
2022-08-17T06:02:36.557Z,90.43
2022-08-17T06:04:50.379Z,90.01
2022-08-17T06:06:59.535Z,89.86
2022-08-17T06:09:24.761Z,89.18
2022-08-17T06:11:47.217Z,88.26
2022-08-17T06:14:10.095Z,86.17
2022-08-17T06:16:33.152Z,84.95
2022-08-17T06:18:47.969Z,84.38
2022-08-17T06:20:54.578Z,82.21
2022-08-17T06:23:04.642Z,81.76
2022-08-17T06:25:15.595Z,79.78
2022-08-17T06:27:33.185Z,78.12
2022-08-17T06:29:41.914Z,80.83
2022-08-17T06:31:43.830Z,78.63
2022-08-17T06:33:45.717Z,78.53
2022-08-17T06:36:18.155Z,76.05
2022-08-17T06:38:38.368Z,76.71
2022-08-17T06:40:43.412Z,74.42
2022-08-17T06:43:14.382Z,72.28
2022-08-17T06:45:23.545Z,72.42
2022-08-17T06:47:37.192Z,71.00
2022-08-17T06:49:43.761Z,71.03
2022-08-17T06:52:12.183Z,68.16
2022-08-17T06:54:40.250Z,66.83
2022-08-17T06:56:53.032Z,66.50
2022-08-17T06:58:57.421Z,66.22
2022-08-17T07:01:16.942Z,67.58
2022-08-17T07:03:35.259Z,67.47
2022-08-17T07:05:48.334Z,66.17
2022-08-17T07:08:03.338Z,64.65
2022-08-17T07:10:08.754Z,63.14
2022-08-17T07:12:24.277Z,63.24
2022-08-17T07:14:54.228Z,63.33
2022-08-17T07:16:58.563Z,63.53
2022-08-17T07:19:00.452Z,61.37
2022-08-17T07:21:29.630Z,61.21
2022-08-17T07:24:26.315Z,61.64
2022-08-17T07:26:32.133Z,60.45
2022-08-17T07:28:35.479Z,59.28
2022-08-17T07:30:47.611Z,59.63
2022-08-17T07:32:57.888Z,57.70
2022-08-17T07:34:59.630Z,60.36
2022-08-17T07:37:05.431Z,58.75
2022-08-17T07:39:08.102Z,60.37
2022-08-17T07:41:11.415Z,57.55
2022-08-17T07:43:23.578Z,58.58
2022-08-17T07:45:25.926Z,56.71
2022-08-17T07:47:27.702Z,58.16
2022-08-17T07:49:32.191Z,59.78
2022-08-17T07:51:36.046Z,58.39
2022-08-17T07:53:37.778Z,60.42
2022-08-17T07:55:39.511Z,58.90
2022-08-17T07:57:41.414Z,58.45
2022-08-17T08:00:04.184Z,58.11
2022-08-17T08:02:31.690Z,58.83
2022-08-17T08:04:59.323Z,59.79
2022-08-17T08:07:02.304Z,58.80
2022-08-17T08:09:04.104Z,60.37
2022-08-17T08:11:13.082Z,58.40
2022-08-17T08:13:23.306Z,59.44
2022-08-17T08:15:35.291Z,63.21
2022-08-17T08:17:52.255Z,61.23
2022-08-17T08:19:54.261Z,60.45
2022-08-17T08:22:06.095Z,62.86
2022-08-17T08:24:33.029Z,60.37
2022-08-17T08:26:40.906Z,64.14
2022-08-17T08:29:07.451Z,62.27
2022-08-17T08:31:17.980Z,63.54
2022-08-17T08:33:32.792Z,63.75
2022-08-17T08:35:46.830Z,64.61
2022-08-17T08:37:54.996Z,64.37
2022-08-17T08:40:11.229Z,66.10
2022-08-17T08:42:33.309Z,66.64
2022-08-17T08:44:59.958Z,65.49
2022-08-17T08:47:15.453Z,66.45
2022-08-17T08:49:59.521Z,66.99
2022-08-17T08:52:00.181Z,65.75
2022-08-17T08:54:17.019Z,63.49
2022-08-17T08:56:37.420Z,62.81
2022-08-17T08:58:50.290Z,62.48
2022-08-17T09:00:56.646Z,66.42
2022-08-17T09:03:42.540Z,64.54
2022-08-17T09:06:37.424Z,63.21
2022-08-17T09:08:59.235Z,64.13
2022-08-17T09:11:13.757Z,62.53
2022-08-17T09:13:24.405Z,62.81
2022-08-17T09:15:34.752Z,60.95
2022-08-17T09:17:55.677Z,60.83
2022-08-17T09:20:28.216Z,59.09
2022-08-17T09:22:42.574Z,60.76
2022-08-17T09:24:51.603Z,60.38
2022-08-17T09:27:04.549Z,58.85
2022-08-17T09:29:11.277Z,57.76
2022-08-17T09:31:20.508Z,58.41
2022-08-17T09:33:26.054Z,60.20
2022-08-17T09:35:37.351Z,62.43
2022-08-17T09:38:06.249Z,61.29
2022-08-17T09:40:17.536Z,61.73
2022-08-17T09:42:31.567Z,61.54
2022-08-17T09:44:41.402Z,61.22
2022-08-17T09:46:53.082Z,59.93
2022-08-17T09:49:06.025Z,60.90
2022-08-17T09:51:18.244Z,60.45
2022-08-17T09:53:20.098Z,58.92
2022-08-17T09:55:26.571Z,60.36
2022-08-17T09:57:34.339Z,60.67
2022-08-17T09:59:48.114Z,63.02
2022-08-17T10:02:13.723Z,59.23
2022-08-17T10:04:52.703Z,58.89
2022-08-17T10:07:21.910Z,60.29
2022-08-17T10:09:48.709Z,60.50
2022-08-17T10:11:57.508Z,58.09
2022-08-17T10:14:36.406Z,58.61
2022-08-17T10:17:03.582Z,57.66
2022-08-17T10:19:16.056Z,56.22
2022-08-17T10:21:19.170Z,56.50
2022-08-17T10:23:29.769Z,57.98
2022-08-17T10:25:53.618Z,57.13
2022-08-17T10:27:59.971Z,57.13
2022-08-17T10:30:04.463Z,56.05
2022-08-17T10:32:10.559Z,60.11
2022-08-17T10:34:41.880Z,59.76
2022-08-17T10:37:01.043Z,58.40
2022-08-17T10:39:24.744Z,58.26
2022-08-17T10:41:39.697Z,59.00
2022-08-17T10:44:37.539Z,59.24
2022-08-17T10:46:41.859Z,56.05
2022-08-17T10:48:44.117Z,57.22
2022-08-17T10:50:57.691Z,55.59
2022-08-17T10:52:59.326Z,55.44
2022-08-17T10:55:17.721Z,54.76
2022-08-17T10:57:41.579Z,58.15
2022-08-17T10:59:43.196Z,58.04
2022-08-17T11:02:26.645Z,58.07
2022-08-17T11:04:51.057Z,59.61
2022-08-17T11:07:25.818Z,59.39
2022-08-17T11:09:59.395Z,59.64
2022-08-17T11:12:32.285Z,59.87
2022-08-17T11:14:45.872Z,57.68
2022-08-17T11:16:58.794Z,60.12
2022-08-17T11:19:24.953Z,59.46
2022-08-17T11:21:38.174Z,57.57
2022-08-17T11:24:13.306Z,57.04
2022-08-17T11:26:23.597Z,57.81
2022-08-17T11:28:29.234Z,57.38
2022-08-17T11:31:00.396Z,56.08
2022-08-17T11:33:34.240Z,55.58
2022-08-17T11:35:48.260Z,55.68
2022-08-17T11:38:13.872Z,55.02
2022-08-17T11:40:37.814Z,51.58
2022-08-17T11:42:49.468Z,52.54
2022-08-17T11:44:59.806Z,52.40
2022-08-17T11:47:18.041Z,52.34
2022-08-17T11:49:49.966Z,53.05
2022-08-17T11:52:01.138Z,52.91
2022-08-17T11:56:43.083Z,52.94
2022-08-17T11:58:45.386Z,53.33
2022-08-17T12:00:47.151Z,54.10
2022-08-17T12:03:27.359Z,55.71
2022-08-17T12:05:32.528Z,56.79
2022-08-17T12:07:45.156Z,58.92
2022-08-17T12:09:51.009Z,57.20
2022-08-17T12:12:13.133Z,57.61
2022-08-17T12:14:27.003Z,57.40
2022-08-17T12:16:42.483Z,59.56
2022-08-17T12:19:02.364Z,59.99
2022-08-17T12:21:07.100Z,60.44
2022-08-17T12:23:50.238Z,61.98
2022-08-17T12:25:57.729Z,62.38
2022-08-17T12:28:06.003Z,63.26
2022-08-17T12:30:15.417Z,63.68
2022-08-17T12:32:20.089Z,66.57
2022-08-17T12:34:34.043Z,68.98
2022-08-17T12:36:35.762Z,72.52
2022-08-17T12:38:38.356Z,77.72
2022-08-17T12:40:40.019Z,84.58
2022-08-17T12:42:41.716Z,88.03
2022-08-17T12:44:50.596Z,92.38
2022-08-17T12:46:54.706Z,96.27
2022-08-17T12:49:12.679Z,100.00
2022-08-17T12:51:14.635Z,100.00
2022-08-17T12:53:28.255Z,100.00
2022-08-17T12:55:36.135Z,100.00
2022-08-17T12:57:58.305Z,100.00
2022-08-17T13:00:13.859Z,100.00
2022-08-17T13:02:49.966Z,100.00
2022-08-17T13:04:51.761Z,100.00
2022-08-17T13:06:59.578Z,100.00
2022-08-17T13:09:15.478Z,100.00
2022-08-17T13:11:21.562Z,100.00
2022-08-17T13:13:26.689Z,100.00
2022-08-17T13:15:44.411Z,100.00
2022-08-17T13:18:17.983Z,100.00
2022-08-17T13:20:19.680Z,100.00
2022-08-17T13:22:26.643Z,100.00
2022-08-17T13:24:29.947Z,100.00
2022-08-17T13:26:48.348Z,100.00
2022-08-17T13:28:50.733Z,100.00
2022-08-17T13:30:52.704Z,100.00
2022-08-17T13:32:56.330Z,100.00
2022-08-17T13:35:15.428Z,100.00
2022-08-17T13:37:23.235Z,100.00
2022-08-17T13:39:25.274Z,100.00
2022-08-17T13:41:35.807Z,100.00
2022-08-17T13:43:47.844Z,100.00
2022-08-17T13:45:52.030Z,100.00
2022-08-17T13:48:18.823Z,100.00
2022-08-17T13:50:21.835Z,97.84
2022-08-17T13:52:34.892Z,98.83
2022-08-17T13:54:40.742Z,97.08
2022-08-17T13:56:53.912Z,91.88
2022-08-17T13:59:01.182Z,95.96
2022-08-17T14:01:34.994Z,94.11
2022-08-17T14:03:36.962Z,96.97
2022-08-17T14:05:39.368Z,95.83
2022-08-17T14:07:41.191Z,95.17
2022-08-17T14:09:55.455Z,90.57
2022-08-17T14:11:58.497Z,88.79
2022-08-17T14:14:00.195Z,87.38
2022-08-17T14:16:01.936Z,88.99
2022-08-17T14:18:03.855Z,90.25
2022-08-17T14:20:11.707Z,90.20
2022-08-17T14:22:25.700Z,83.34
2022-08-17T14:24:32.624Z,85.45
2022-08-17T14:26:34.474Z,81.99
2022-08-17T14:28:37.232Z,82.24
2022-08-17T14:30:44.670Z,82.36
2022-08-17T14:32:47.053Z,83.44
2022-08-17T14:34:49.073Z,83.59
2022-08-17T14:36:52.030Z,82.19
2022-08-17T14:38:53.743Z,77.98
2022-08-17T14:40:55.566Z,78.35
2022-08-17T14:42:57.610Z,77.41
2022-08-17T14:45:00.241Z,77.11
2022-08-17T14:47:01.901Z,74.65
2022-08-17T14:49:03.586Z,76.42
2022-08-17T14:51:05.556Z,76.09
2022-08-17T14:53:09.822Z,75.93
2022-08-17T14:55:11.516Z,76.12
2022-08-17T14:57:22.220Z,74.97
2022-08-17T14:59:27.610Z,75.59
2022-08-17T15:01:29.390Z,74.18
2022-08-17T15:03:31.167Z,74.65
2022-08-17T15:05:36.852Z,73.86
2022-08-17T15:07:38.541Z,73.94
2022-08-17T15:09:40.384Z,72.02
2022-08-17T15:11:42.663Z,72.53
2022-08-17T15:13:52.310Z,71.54
2022-08-17T15:15:54.949Z,71.37
2022-08-17T15:17:57.619Z,71.25
2022-08-17T15:19:59.591Z,71.72
2022-08-17T15:22:01.266Z,71.28
2022-08-17T15:24:05.174Z,70.82
2022-08-17T15:26:07.386Z,71.96
2022-08-17T15:28:09.162Z,72.04
2022-08-17T15:30:11.752Z,71.09
2022-08-17T15:32:33.333Z,70.73
2022-08-17T15:34:35.023Z,71.32
2022-08-17T15:36:36.905Z,71.08
2022-08-17T15:38:38.581Z,72.29
2022-08-17T15:40:44.564Z,70.00
2022-08-17T15:42:46.401Z,70.18
2022-08-17T15:44:49.058Z,68.91
2022-08-17T15:46:50.696Z,68.29
2022-08-17T15:48:57.106Z,68.21
2022-08-17T15:50:58.897Z,69.65
2022-08-17T15:53:01.587Z,68.93
2022-08-17T15:55:05.167Z,68.40
2022-08-17T15:57:06.903Z,67.94
2022-08-17T15:59:08.589Z,69.53
2022-08-17T16:01:14.324Z,70.34
2022-08-17T16:03:58.047Z,70.88
2022-08-17T16:05:40.712Z,71.23
2022-08-17T16:07:42.794Z,72.15
2022-08-17T16:09:45.075Z,72.05
2022-08-17T16:11:52.155Z,71.53
2022-08-17T16:13:57.202Z,69.23
2022-08-17T16:15:58.923Z,69.22
2022-08-17T16:18:00.643Z,69.99
2022-08-17T16:20:02.505Z,70.05
2022-08-17T16:22:09.192Z,69.89
2022-08-17T16:24:13.150Z,69.24
2022-08-17T16:26:16.078Z,68.69
2022-08-17T16:28:18.150Z,69.04
2022-08-17T16:30:23.348Z,68.67
2022-08-17T16:32:31.802Z,67.74
2022-08-17T16:34:34.771Z,68.29
2022-08-17T16:36:36.437Z,69.30
2022-08-17T16:38:38.207Z,68.80
2022-08-17T16:40:40.348Z,69.01
2022-08-17T16:42:42.248Z,68.57
2022-08-17T16:44:44.047Z,70.22
2022-08-17T16:46:47.240Z,70.70
2022-08-17T16:48:48.943Z,70.25
2022-08-17T16:51:03.056Z,69.73
2022-08-17T16:53:10.138Z,69.53
2022-08-17T16:55:13.444Z,69.77
2022-08-17T16:57:16.898Z,70.76
2022-08-17T16:59:30.828Z,71.60
2022-08-17T17:01:33.529Z,70.88
2022-08-17T17:03:42.923Z,70.53
2022-08-17T17:06:14.757Z,70.57
2022-08-17T17:08:53.999Z,70.40
2022-08-17T17:10:57.351Z,70.85
2022-08-17T17:13:01.886Z,71.62
2022-08-17T17:15:07.484Z,71.00
2022-08-17T17:17:12.821Z,72.02
2022-08-17T17:19:45.859Z,72.13
2022-08-17T17:21:58.921Z,72.78
2022-08-17T17:24:07.904Z,73.50
2022-08-17T17:26:39.011Z,73.47
2022-08-17T17:29:05.475Z,73.77
2022-08-17T17:31:18.001Z,74.98
2022-08-17T17:33:24.841Z,74.81
2022-08-17T17:35:33.499Z,75.27
2022-08-17T17:37:37.790Z,74.83
2022-08-17T17:39:53.115Z,74.88
2022-08-17T17:42:00.395Z,75.09
2022-08-17T17:44:08.437Z,75.28
2022-08-17T17:46:28.085Z,76.11
2022-08-17T17:48:30.844Z,77.28
2022-08-17T17:50:38.093Z,80.71
2022-08-17T17:52:39.740Z,83.60
2022-08-17T17:55:03.169Z,85.06
2022-08-17T17:57:22.891Z,87.23
2022-08-17T17:59:29.750Z,84.88
2022-08-17T18:01:46.241Z,85.37
2022-08-17T18:04:02.301Z,86.53
2022-08-17T18:06:41.091Z,85.91
2022-08-17T18:09:18.079Z,90.31
2022-08-17T18:11:36.167Z,95.35
2022-08-17T18:14:20.227Z,96.12
2022-08-17T18:16:22.827Z,94.30
2022-08-17T18:18:31.377Z,95.24
2022-08-17T18:20:43.343Z,95.20
2022-08-17T18:22:54.869Z,96.66
2022-08-17T18:24:56.758Z,97.86
2022-08-17T18:27:01.194Z,100.00
2022-08-17T18:29:27.448Z,100.00
2022-08-17T18:31:29.183Z,100.00
2022-08-17T18:33:31.431Z,100.00
2022-08-17T18:35:33.140Z,100.00
2022-08-17T18:37:40.706Z,100.00
2022-08-17T18:39:42.818Z,100.00
2022-08-17T18:41:50.187Z,100.00
2022-08-17T18:44:02.479Z,100.00
2022-08-17T18:46:30.449Z,100.00
2022-08-17T18:48:35.595Z,100.00
2022-08-17T18:50:40.618Z,100.00
2022-08-17T18:52:42.633Z,100.00
2022-08-17T18:55:02.301Z,100.00
2022-08-17T18:57:05.956Z,100.00
2022-08-17T18:59:20.871Z,100.00
2022-08-17T19:01:41.982Z,100.00
2022-08-17T19:03:44.751Z,100.00
2022-08-17T19:05:51.063Z,100.00
2022-08-17T19:07:52.931Z,100.00
2022-08-17T19:10:12.774Z,100.00
2022-08-17T19:12:27.287Z,100.00
2022-08-17T19:14:30.964Z,100.00
2022-08-17T19:16:38.577Z,100.00
2022-08-17T19:18:56.888Z,100.00
2022-08-17T19:21:05.937Z,100.00
2022-08-17T19:23:54.156Z,100.00
2022-08-17T19:26:00.320Z,100.00
2022-08-17T19:28:22.211Z,100.00
2022-08-17T19:30:24.589Z,100.00
2022-08-17T19:32:31.225Z,100.00
2022-08-17T19:34:35.615Z,100.00
2022-08-17T19:36:48.368Z,100.00
2022-08-17T19:39:02.053Z,100.00
2022-08-17T19:41:20.379Z,100.00
2022-08-17T19:43:59.412Z,100.00
2022-08-17T19:46:17.815Z,100.00
2022-08-17T19:48:40.992Z,100.00
2022-08-17T19:50:54.521Z,100.00
2022-08-17T19:53:14.555Z,100.00
2022-08-17T19:55:25.685Z,100.00
2022-08-17T19:57:36.458Z,100.00
2022-08-17T20:00:27.143Z,100.00
2022-08-17T20:02:50.187Z,100.00
2022-08-17T20:04:55.735Z,100.00
2022-08-17T20:07:02.628Z,100.00
2022-08-17T20:09:21.610Z,100.00
2022-08-17T20:11:41.709Z,100.00
2022-08-17T20:13:50.235Z,100.00
2022-08-17T20:15:52.110Z,100.00
2022-08-17T20:17:59.064Z,100.00
2022-08-17T20:20:24.016Z,100.00
2022-08-17T20:22:52.378Z,100.00
2022-08-17T20:25:01.743Z,100.00
2022-08-17T20:27:09.607Z,100.00
2022-08-17T20:29:14.434Z,100.00
2022-08-17T20:31:43.989Z,100.00
2022-08-17T20:33:45.886Z,100.00
2022-08-17T20:36:23.069Z,100.00
2022-08-17T20:38:47.485Z,100.00
2022-08-17T20:40:55.014Z,100.00
2022-08-17T20:42:59.426Z,100.00
2022-08-17T20:45:21.191Z,100.00
2022-08-17T20:47:29.087Z,100.00
2022-08-17T20:49:47.599Z,100.00
2022-08-17T20:52:07.160Z,100.00
2022-08-17T20:54:17.963Z,100.00
2022-08-17T20:56:44.285Z,100.00
2022-08-17T20:58:47.408Z,100.00
2022-08-17T21:00:50.978Z,100.00
2022-08-17T21:03:21.759Z,100.00
2022-08-17T21:05:37.472Z,100.00
2022-08-17T21:07:43.086Z,100.00
2022-08-17T21:09:45.549Z,100.00
2022-08-17T21:12:04.133Z,100.00
2022-08-17T21:14:29.409Z,100.00
2022-08-17T21:16:58.059Z,100.00
2022-08-17T21:19:26.222Z,100.00
2022-08-17T21:21:39.677Z,100.00
2022-08-17T21:24:21.954Z,100.00
2022-08-17T21:26:50.459Z,100.00
2022-08-17T21:29:30.268Z,100.00
2022-08-17T21:31:42.562Z,100.00
2022-08-17T21:34:20.711Z,100.00
2022-08-17T21:36:25.568Z,100.00
2022-08-17T21:38:40.487Z,100.00
2022-08-17T21:40:45.846Z,100.00
2022-08-17T21:42:56.180Z,100.00
2022-08-17T21:45:09.348Z,100.00
2022-08-17T21:47:23.675Z,100.00
2022-08-17T21:49:27.547Z,100.00
2022-08-17T21:51:30.714Z,100.00
2022-08-17T21:53:48.258Z,100.00
2022-08-17T21:55:51.697Z,100.00
2022-08-17T21:58:14.231Z,100.00
2022-08-17T22:00:24.380Z,100.00
2022-08-17T22:02:34.568Z,100.00
2022-08-17T22:04:39.667Z,100.00
2022-08-17T22:06:57.395Z,100.00
2022-08-17T22:09:04.065Z,100.00
2022-08-17T22:11:05.806Z,100.00
2022-08-17T22:13:16.832Z,100.00
2022-08-17T22:15:19.460Z,100.00
2022-08-17T22:17:30.805Z,100.00
2022-08-17T22:19:34.628Z,100.00
2022-08-17T22:21:36.407Z,100.00
2022-08-17T22:23:41.762Z,100.00
2022-08-17T22:26:03.819Z,100.00
2022-08-17T22:28:11.522Z,100.00
2022-08-17T22:30:34.310Z,100.00
2022-08-17T22:32:45.309Z,100.00
2022-08-17T22:35:28.714Z,100.00
2022-08-17T22:37:30.450Z,100.00
2022-08-17T22:39:35.182Z,100.00
2022-08-17T22:41:55.297Z,100.00
2022-08-17T22:44:00.382Z,100.00
2022-08-17T22:46:07.710Z,100.00
2022-08-17T22:48:10.087Z,100.00
2022-08-17T22:50:25.449Z,100.00
2022-08-17T22:52:39.497Z,100.00
2022-08-17T22:54:45.580Z,100.00
2022-08-17T22:56:53.401Z,100.00
2022-08-17T22:58:58.886Z,100.00
2022-08-17T23:01:26.339Z,100.00
2022-08-17T23:03:28.272Z,100.00
2022-08-17T23:05:30.388Z,100.00
2022-08-17T23:07:32.125Z,100.00
2022-08-17T23:09:34.489Z,100.00
2022-08-17T23:11:48.606Z,100.00
2022-08-17T23:13:55.457Z,100.00
2022-08-17T23:15:57.221Z,100.00
2022-08-17T23:18:01.174Z,100.00
2022-08-17T23:20:07.341Z,100.00
2022-08-17T23:22:10.660Z,100.00
2022-08-17T23:24:19.368Z,100.00
2022-08-17T23:26:21.785Z,100.00
2022-08-17T23:28:23.526Z,100.00
2022-08-17T23:30:25.787Z,100.00
2022-08-17T23:32:27.581Z,100.00
2022-08-17T23:34:29.299Z,100.00
2022-08-17T23:36:31.404Z,100.00
2022-08-17T23:38:33.235Z,100.00
2022-08-17T23:40:35.048Z,100.00
2022-08-17T23:42:39.842Z,100.00
2022-08-17T23:44:48.137Z,100.00
2022-08-17T23:46:51.637Z,100.00
2022-08-17T23:48:53.959Z,100.00
2022-08-17T23:50:56.315Z,100.00
2022-08-17T23:52:58.131Z,100.00
2022-08-17T23:55:00.192Z,100.00
2022-08-17T23:57:03.341Z,100.00
2022-08-17T23:59:05.092Z,100.00
